sensor_id;sensor_type;location;lat;lon;timestamp;temperature;humidity
8105;DHT22;4095;48.942;9.104;2022-07-29T00:01:16;22.10;99.90
8105;DHT22;4095;48.942;9.104;2022-07-29T00:03:42;22.10;99.90
8105;DHT22;4095;48.942;9.104;2022-07-29T00:06:07;22.00;99.90
8105;DHT22;4095;48.942;9.104;2022-07-29T00:08:33;22.00;99.90
8105;DHT22;4095;48.942;9.104;2022-07-29T00:10:59;22.00;99.90
8105;DHT22;4095;48.942;9.104;2022-07-29T00:13:24;22.00;99.90
8105;DHT22;4095;48.942;9.104;2022-07-29T00:15:50;21.90;99.90
8105;DHT22;4095;48.942;9.104;2022-07-29T00:18:15;21.90;99.90
8105;DHT22;4095;48.942;9.104;2022-07-29T00:20:41;21.90;99.90
8105;DHT22;4095;48.942;9.104;2022-07-29T00:23:06;21.90;99.90
8105;DHT22;4095;48.942;9.104;2022-07-29T00:25:32;21.90;99.90
8105;DHT22;4095;48.942;9.104;2022-07-29T00:27:58;21.80;99.90
8105;DHT22;4095;48.942;9.104;2022-07-29T00:30:23;21.70;99.90
8105;DHT22;4095;48.942;9.104;2022-07-29T00:32:49;21.60;99.90
8105;DHT22;4095;48.942;9.104;2022-07-29T00:35:14;21.60;99.90
8105;DHT22;4095;48.942;9.104;2022-07-29T00:37:58;21.60;99.90
8105;DHT22;4095;48.942;9.104;2022-07-29T00:40:24;21.50;99.90
8105;DHT22;4095;48.942;9.104;2022-07-29T00:42:51;21.50;99.90
8105;DHT22;4095;48.942;9.104;2022-07-29T00:45:17;21.50;99.90
8105;DHT22;4095;48.942;9.104;2022-07-29T00:47:44;21.50;99.90
8105;DHT22;4095;48.942;9.104;2022-07-29T00:50:12;21.50;99.90
8105;DHT22;4095;48.942;9.104;2022-07-29T00:52:39;21.40;99.90
8105;DHT22;4095;48.942;9.104;2022-07-29T00:55:08;21.40;99.90
8105;DHT22;4095;48.942;9.104;2022-07-29T00:57:34;21.40;99.90
8105;DHT22;4095;48.942;9.104;2022-07-29T01:00:00;21.40;99.90
8105;DHT22;4095;48.942;9.104;2022-07-29T01:02:26;21.30;99.90
8105;DHT22;4095;48.942;9.104;2022-07-29T01:04:52;21.30;99.90
8105;DHT22;4095;48.942;9.104;2022-07-29T01:07:18;21.30;99.90
8105;DHT22;4095;48.942;9.104;2022-07-29T01:09:44;21.30;99.90
8105;DHT22;4095;48.942;9.104;2022-07-29T01:12:23;21.30;99.90
8105;DHT22;4095;48.942;9.104;2022-07-29T01:14:50;21.40;99.90
8105;DHT22;4095;48.942;9.104;2022-07-29T01:20:25;21.40;99.90
8105;DHT22;4095;48.942;9.104;2022-07-29T01:31:04;21.30;99.90
8105;DHT22;4095;48.942;9.104;2022-07-29T01:33:32;21.30;99.90
8105;DHT22;4095;48.942;9.104;2022-07-29T01:36:17;21.30;99.90
8105;DHT22;4095;48.942;9.104;2022-07-29T01:38:47;21.30;99.90
8105;DHT22;4095;48.942;9.104;2022-07-29T01:41:17;21.30;99.90
8105;DHT22;4095;48.942;9.104;2022-07-29T01:43:51;21.20;99.90
8105;DHT22;4095;48.942;9.104;2022-07-29T01:46:24;21.30;99.90
8105;DHT22;4095;48.942;9.104;2022-07-29T01:48:56;21.30;99.90
8105;DHT22;4095;48.942;9.104;2022-07-29T01:51:29;21.20;99.90
8105;DHT22;4095;48.942;9.104;2022-07-29T01:56:43;21.20;99.90
8105;DHT22;4095;48.942;9.104;2022-07-29T01:59:10;21.20;99.90
8105;DHT22;4095;48.942;9.104;2022-07-29T02:01:39;21.20;99.90
8105;DHT22;4095;48.942;9.104;2022-07-29T02:04:08;21.10;99.90
8105;DHT22;4095;48.942;9.104;2022-07-29T02:06:37;21.10;99.90
8105;DHT22;4095;48.942;9.104;2022-07-29T02:09:04;21.00;99.90
8105;DHT22;4095;48.942;9.104;2022-07-29T02:11:32;21.10;99.90
8105;DHT22;4095;48.942;9.104;2022-07-29T02:13:59;21.10;99.90
8105;DHT22;4095;48.942;9.104;2022-07-29T02:16:27;21.00;99.90
8105;DHT22;4095;48.942;9.104;2022-07-29T02:18:55;21.10;99.90
8105;DHT22;4095;48.942;9.104;2022-07-29T02:21:24;21.00;99.90
8105;DHT22;4095;48.942;9.104;2022-07-29T02:23:53;21.00;99.90
8105;DHT22;4095;48.942;9.104;2022-07-29T02:26:21;21.00;99.90
8105;DHT22;4095;48.942;9.104;2022-07-29T02:28:50;21.00;99.90
8105;DHT22;4095;48.942;9.104;2022-07-29T02:31:20;21.00;99.90
8105;DHT22;4095;48.942;9.104;2022-07-29T02:33:47;21.00;99.90
8105;DHT22;4095;48.942;9.104;2022-07-29T02:36:13;21.00;99.90
8105;DHT22;4095;48.942;9.104;2022-07-29T02:38:42;21.00;99.90
8105;DHT22;4095;48.942;9.104;2022-07-29T02:41:24;21.00;99.90
8105;DHT22;4095;48.942;9.104;2022-07-29T02:44:02;20.90;99.90
8105;DHT22;4095;48.942;9.104;2022-07-29T02:46:34;20.90;99.90
8105;DHT22;4095;48.942;9.104;2022-07-29T02:49:06;20.90;99.90
8105;DHT22;4095;48.942;9.104;2022-07-29T02:51:41;20.90;99.90
8105;DHT22;4095;48.942;9.104;2022-07-29T02:54:09;20.90;99.90
8105;DHT22;4095;48.942;9.104;2022-07-29T02:56:36;20.80;99.90
8105;DHT22;4095;48.942;9.104;2022-07-29T02:59:08;20.80;99.90
8105;DHT22;4095;48.942;9.104;2022-07-29T03:01:35;20.80;99.90
8105;DHT22;4095;48.942;9.104;2022-07-29T03:04:04;20.80;99.90
8105;DHT22;4095;48.942;9.104;2022-07-29T03:06:30;20.80;99.90
8105;DHT22;4095;48.942;9.104;2022-07-29T03:08:59;20.70;99.90
8105;DHT22;4095;48.942;9.104;2022-07-29T03:11:25;20.80;99.90
8105;DHT22;4095;48.942;9.104;2022-07-29T03:13:52;20.80;99.90
8105;DHT22;4095;48.942;9.104;2022-07-29T03:16:19;20.80;99.90
8105;DHT22;4095;48.942;9.104;2022-07-29T03:18:45;20.80;99.90
8105;DHT22;4095;48.942;9.104;2022-07-29T03:21:11;20.70;99.90
8105;DHT22;4095;48.942;9.104;2022-07-29T03:23:43;20.80;99.90
8105;DHT22;4095;48.942;9.104;2022-07-29T03:26:10;20.60;99.90
8105;DHT22;4095;48.942;9.104;2022-07-29T03:28:36;20.70;99.90
8105;DHT22;4095;48.942;9.104;2022-07-29T03:31:01;20.60;99.90
8105;DHT22;4095;48.942;9.104;2022-07-29T03:33:27;20.60;99.90
8105;DHT22;4095;48.942;9.104;2022-07-29T03:35:54;20.60;99.90
8105;DHT22;4095;48.942;9.104;2022-07-29T03:38:20;20.60;99.90
8105;DHT22;4095;48.942;9.104;2022-07-29T03:40:53;20.60;99.90
8105;DHT22;4095;48.942;9.104;2022-07-29T03:43:19;20.60;99.90
8105;DHT22;4095;48.942;9.104;2022-07-29T03:45:49;20.60;99.90
8105;DHT22;4095;48.942;9.104;2022-07-29T03:48:19;20.60;99.90
8105;DHT22;4095;48.942;9.104;2022-07-29T03:50:46;20.60;99.90
8105;DHT22;4095;48.942;9.104;2022-07-29T03:53:12;20.60;99.90
8105;DHT22;4095;48.942;9.104;2022-07-29T03:55:47;20.60;99.90
8105;DHT22;4095;48.942;9.104;2022-07-29T03:58:14;20.60;99.90
8105;DHT22;4095;48.942;9.104;2022-07-29T04:00:42;20.60;99.90
8105;DHT22;4095;48.942;9.104;2022-07-29T04:03:08;20.60;99.90
8105;DHT22;4095;48.942;9.104;2022-07-29T04:05:34;20.60;99.90
8105;DHT22;4095;48.942;9.104;2022-07-29T04:08:00;20.50;99.90
8105;DHT22;4095;48.942;9.104;2022-07-29T04:10:26;20.60;99.90
8105;DHT22;4095;48.942;9.104;2022-07-29T04:12:51;20.60;99.90
8105;DHT22;4095;48.942;9.104;2022-07-29T04:15:18;20.60;99.90
8105;DHT22;4095;48.942;9.104;2022-07-29T04:17:43;20.60;99.90
8105;DHT22;4095;48.942;9.104;2022-07-29T04:20:10;20.60;99.90
8105;DHT22;4095;48.942;9.104;2022-07-29T04:22:39;20.60;99.90
8105;DHT22;4095;48.942;9.104;2022-07-29T04:25:04;20.60;99.90
8105;DHT22;4095;48.942;9.104;2022-07-29T04:27:30;20.70;99.90
8105;DHT22;4095;48.942;9.104;2022-07-29T04:29:55;20.70;99.90
8105;DHT22;4095;48.942;9.104;2022-07-29T04:32:21;20.70;99.90
8105;DHT22;4095;48.942;9.104;2022-07-29T04:34:47;20.70;99.90
8105;DHT22;4095;48.942;9.104;2022-07-29T04:37:13;20.70;99.90
8105;DHT22;4095;48.942;9.104;2022-07-29T04:39:38;20.70;99.90
8105;DHT22;4095;48.942;9.104;2022-07-29T04:42:04;20.70;99.90
8105;DHT22;4095;48.942;9.104;2022-07-29T04:44:30;20.70;99.90
8105;DHT22;4095;48.942;9.104;2022-07-29T04:46:56;20.70;99.90
8105;DHT22;4095;48.942;9.104;2022-07-29T04:49:22;20.70;99.90
8105;DHT22;4095;48.942;9.104;2022-07-29T04:51:48;20.70;99.90
8105;DHT22;4095;48.942;9.104;2022-07-29T04:54:14;20.80;99.90
8105;DHT22;4095;48.942;9.104;2022-07-29T04:56:39;20.80;99.90
8105;DHT22;4095;48.942;9.104;2022-07-29T04:59:05;20.80;99.90
8105;DHT22;4095;48.942;9.104;2022-07-29T05:01:31;20.80;99.90
8105;DHT22;4095;48.942;9.104;2022-07-29T05:03:56;20.80;99.90
8105;DHT22;4095;48.942;9.104;2022-07-29T05:06:22;20.90;99.90
8105;DHT22;4095;48.942;9.104;2022-07-29T05:08:47;21.00;99.90
8105;DHT22;4095;48.942;9.104;2022-07-29T05:11:13;21.00;99.90
8105;DHT22;4095;48.942;9.104;2022-07-29T05:13:39;21.10;99.90
8105;DHT22;4095;48.942;9.104;2022-07-29T05:16:05;21.20;99.90
8105;DHT22;4095;48.942;9.104;2022-07-29T05:18:30;21.20;99.90
8105;DHT22;4095;48.942;9.104;2022-07-29T05:20:56;21.30;99.90
8105;DHT22;4095;48.942;9.104;2022-07-29T05:23:22;21.30;99.90
8105;DHT22;4095;48.942;9.104;2022-07-29T05:25:47;21.40;99.90
8105;DHT22;4095;48.942;9.104;2022-07-29T05:28:13;21.50;99.90
8105;DHT22;4095;48.942;9.104;2022-07-29T05:30:39;21.60;99.90
8105;DHT22;4095;48.942;9.104;2022-07-29T05:33:04;21.60;99.90
8105;DHT22;4095;48.942;9.104;2022-07-29T05:35:30;21.70;99.90
8105;DHT22;4095;48.942;9.104;2022-07-29T05:37:55;21.70;99.90
8105;DHT22;4095;48.942;9.104;2022-07-29T05:40:21;21.80;99.90
8105;DHT22;4095;48.942;9.104;2022-07-29T05:42:47;21.90;99.90
8105;DHT22;4095;48.942;9.104;2022-07-29T05:45:12;21.90;99.90
8105;DHT22;4095;48.942;9.104;2022-07-29T05:47:38;21.90;99.90
8105;DHT22;4095;48.942;9.104;2022-07-29T05:50:04;22.10;99.90
8105;DHT22;4095;48.942;9.104;2022-07-29T05:52:29;22.10;99.90
8105;DHT22;4095;48.942;9.104;2022-07-29T05:54:55;22.20;99.90
8105;DHT22;4095;48.942;9.104;2022-07-29T05:57:23;22.20;99.90
8105;DHT22;4095;48.942;9.104;2022-07-29T05:59:49;22.30;99.90
8105;DHT22;4095;48.942;9.104;2022-07-29T06:02:15;22.30;99.90
8105;DHT22;4095;48.942;9.104;2022-07-29T06:04:41;22.30;99.90
8105;DHT22;4095;48.942;9.104;2022-07-29T06:07:07;22.40;99.90
8105;DHT22;4095;48.942;9.104;2022-07-29T06:09:33;22.40;99.90
8105;DHT22;4095;48.942;9.104;2022-07-29T06:11:59;22.40;99.90
8105;DHT22;4095;48.942;9.104;2022-07-29T06:14:25;22.50;99.90
8105;DHT22;4095;48.942;9.104;2022-07-29T06:16:52;22.50;99.90
8105;DHT22;4095;48.942;9.104;2022-07-29T06:19:18;22.50;99.90
8105;DHT22;4095;48.942;9.104;2022-07-29T06:21:44;22.60;99.90
8105;DHT22;4095;48.942;9.104;2022-07-29T06:24:11;22.70;99.90
8105;DHT22;4095;48.942;9.104;2022-07-29T06:26:38;22.70;99.90
8105;DHT22;4095;48.942;9.104;2022-07-29T06:29:06;22.80;99.90
8105;DHT22;4095;48.942;9.104;2022-07-29T06:31:32;22.80;99.90
8105;DHT22;4095;48.942;9.104;2022-07-29T06:33:57;22.90;99.90
8105;DHT22;4095;48.942;9.104;2022-07-29T06:36:23;22.90;99.90
8105;DHT22;4095;48.942;9.104;2022-07-29T06:38:48;22.90;99.90
8105;DHT22;4095;48.942;9.104;2022-07-29T06:41:14;23.00;99.90
8105;DHT22;4095;48.942;9.104;2022-07-29T06:43:42;22.90;99.90
8105;DHT22;4095;48.942;9.104;2022-07-29T06:46:11;23.00;99.90
8105;DHT22;4095;48.942;9.104;2022-07-29T06:48:37;23.00;99.90
8105;DHT22;4095;48.942;9.104;2022-07-29T06:51:04;23.10;99.90
8105;DHT22;4095;48.942;9.104;2022-07-29T06:53:30;23.10;99.90
8105;DHT22;4095;48.942;9.104;2022-07-29T06:55:56;23.10;99.90
8105;DHT22;4095;48.942;9.104;2022-07-29T06:58:23;23.20;99.90
8105;DHT22;4095;48.942;9.104;2022-07-29T07:00:49;23.30;99.90
8105;DHT22;4095;48.942;9.104;2022-07-29T07:03:16;23.30;99.90
8105;DHT22;4095;48.942;9.104;2022-07-29T07:05:42;23.40;99.90
8105;DHT22;4095;48.942;9.104;2022-07-29T07:08:08;23.50;99.90
8105;DHT22;4095;48.942;9.104;2022-07-29T07:10:33;23.60;99.90
8105;DHT22;4095;48.942;9.104;2022-07-29T07:13:00;23.70;99.90
8105;DHT22;4095;48.942;9.104;2022-07-29T07:15:27;23.80;99.90
8105;DHT22;4095;48.942;9.104;2022-07-29T07:17:53;23.90;99.90
8105;DHT22;4095;48.942;9.104;2022-07-29T07:20:19;23.90;99.90
8105;DHT22;4095;48.942;9.104;2022-07-29T07:22:44;24.10;99.90
8105;DHT22;4095;48.942;9.104;2022-07-29T07:25:11;24.20;99.90
8105;DHT22;4095;48.942;9.104;2022-07-29T07:27:37;24.30;99.90
8105;DHT22;4095;48.942;9.104;2022-07-29T07:30:04;24.30;99.90
8105;DHT22;4095;48.942;9.104;2022-07-29T07:32:34;24.40;99.70
8105;DHT22;4095;48.942;9.104;2022-07-29T07:35:00;24.40;99.30
8105;DHT22;4095;48.942;9.104;2022-07-29T07:37:26;24.50;99.80
8105;DHT22;4095;48.942;9.104;2022-07-29T07:39:52;24.50;99.50
8105;DHT22;4095;48.942;9.104;2022-07-29T07:42:18;24.70;99.90
8105;DHT22;4095;48.942;9.104;2022-07-29T07:44:44;24.80;99.80
8105;DHT22;4095;48.942;9.104;2022-07-29T07:47:11;24.80;99.00
8105;DHT22;4095;48.942;9.104;2022-07-29T07:49:38;24.80;99.50
8105;DHT22;4095;48.942;9.104;2022-07-29T07:52:03;24.80;98.60
8105;DHT22;4095;48.942;9.104;2022-07-29T07:54:29;24.80;98.60
8105;DHT22;4095;48.942;9.104;2022-07-29T07:56:55;24.80;98.40
8105;DHT22;4095;48.942;9.104;2022-07-29T07:59:21;24.90;98.80
8105;DHT22;4095;48.942;9.104;2022-07-29T08:01:46;24.90;98.50
8105;DHT22;4095;48.942;9.104;2022-07-29T08:04:12;25.00;97.50
8105;DHT22;4095;48.942;9.104;2022-07-29T08:06:37;25.00;98.10
8105;DHT22;4095;48.942;9.104;2022-07-29T08:09:04;25.10;98.30
8105;DHT22;4095;48.942;9.104;2022-07-29T08:11:30;25.30;97.90
8105;DHT22;4095;48.942;9.104;2022-07-29T08:13:56;25.40;97.80
8105;DHT22;4095;48.942;9.104;2022-07-29T08:16:22;25.40;97.50
8105;DHT22;4095;48.942;9.104;2022-07-29T08:18:48;25.40;97.20
8105;DHT22;4095;48.942;9.104;2022-07-29T08:21:14;25.40;97.20
8105;DHT22;4095;48.942;9.104;2022-07-29T08:23:41;25.30;97.10
8105;DHT22;4095;48.942;9.104;2022-07-29T08:26:12;25.30;97.30
8105;DHT22;4095;48.942;9.104;2022-07-29T08:28:40;25.50;97.90
8105;DHT22;4095;48.942;9.104;2022-07-29T08:31:06;25.60;96.80
8105;DHT22;4095;48.942;9.104;2022-07-29T08:33:32;25.60;97.20
8105;DHT22;4095;48.942;9.104;2022-07-29T08:35:58;25.70;96.60
8105;DHT22;4095;48.942;9.104;2022-07-29T08:38:23;25.70;96.80
8105;DHT22;4095;48.942;9.104;2022-07-29T08:40:51;25.80;96.70
8105;DHT22;4095;48.942;9.104;2022-07-29T08:43:18;25.90;97.10
8105;DHT22;4095;48.942;9.104;2022-07-29T08:45:46;26.00;95.50
8105;DHT22;4095;48.942;9.104;2022-07-29T08:48:12;26.00;94.70
8105;DHT22;4095;48.942;9.104;2022-07-29T08:50:39;26.20;95.60
8105;DHT22;4095;48.942;9.104;2022-07-29T08:53:17;26.30;94.00
8105;DHT22;4095;48.942;9.104;2022-07-29T08:55:44;26.40;94.20
8105;DHT22;4095;48.942;9.104;2022-07-29T08:58:11;26.50;93.40
8105;DHT22;4095;48.942;9.104;2022-07-29T09:00:39;26.60;93.50
8105;DHT22;4095;48.942;9.104;2022-07-29T09:03:08;26.70;93.60
8105;DHT22;4095;48.942;9.104;2022-07-29T09:05:35;26.70;93.20
8105;DHT22;4095;48.942;9.104;2022-07-29T09:08:01;26.90;93.30
8105;DHT22;4095;48.942;9.104;2022-07-29T09:10:27;27.00;93.60
8105;DHT22;4095;48.942;9.104;2022-07-29T09:12:54;27.10;93.10
8105;DHT22;4095;48.942;9.104;2022-07-29T09:15:20;27.20;93.30
8105;DHT22;4095;48.942;9.104;2022-07-29T09:17:48;27.30;92.30
8105;DHT22;4095;48.942;9.104;2022-07-29T09:20:20;27.30;90.60
8105;DHT22;4095;48.942;9.104;2022-07-29T09:22:48;27.30;90.80
8105;DHT22;4095;48.942;9.104;2022-07-29T09:25:34;27.50;91.10
8105;DHT22;4095;48.942;9.104;2022-07-29T09:28:14;27.60;90.90
8105;DHT22;4095;48.942;9.104;2022-07-29T09:30:56;27.70;89.30
8105;DHT22;4095;48.942;9.104;2022-07-29T09:33:25;27.70;88.40
8105;DHT22;4095;48.942;9.104;2022-07-29T09:36:02;27.80;89.70
8105;DHT22;4095;48.942;9.104;2022-07-29T09:38:28;27.90;89.80
8105;DHT22;4095;48.942;9.104;2022-07-29T09:40:58;28.00;88.20
8105;DHT22;4095;48.942;9.104;2022-07-29T09:43:24;28.00;88.60
8105;DHT22;4095;48.942;9.104;2022-07-29T09:45:49;28.20;90.10
8105;DHT22;4095;48.942;9.104;2022-07-29T09:48:23;28.20;87.80
8105;DHT22;4095;48.942;9.104;2022-07-29T09:50:50;28.20;87.90
8105;DHT22;4095;48.942;9.104;2022-07-29T09:53:36;28.30;88.40
8105;DHT22;4095;48.942;9.104;2022-07-29T09:56:04;28.20;87.50
8105;DHT22;4095;48.942;9.104;2022-07-29T09:58:30;28.20;86.70
8105;DHT22;4095;48.942;9.104;2022-07-29T10:00:59;28.20;86.30
8105;DHT22;4095;48.942;9.104;2022-07-29T10:03:24;28.30;86.60
8105;DHT22;4095;48.942;9.104;2022-07-29T10:06:10;28.30;86.30
8105;DHT22;4095;48.942;9.104;2022-07-29T10:08:36;28.40;86.70
8105;DHT22;4095;48.942;9.104;2022-07-29T10:11:19;28.50;87.40
8105;DHT22;4095;48.942;9.104;2022-07-29T10:13:47;28.60;86.70
8105;DHT22;4095;48.942;9.104;2022-07-29T10:16:14;28.70;87.80
8105;DHT22;4095;48.942;9.104;2022-07-29T10:18:41;28.80;85.60
8105;DHT22;4095;48.942;9.104;2022-07-29T10:21:07;28.80;85.40
8105;DHT22;4095;48.942;9.104;2022-07-29T10:23:34;28.90;84.90
8105;DHT22;4095;48.942;9.104;2022-07-29T10:26:02;29.00;84.40
8105;DHT22;4095;48.942;9.104;2022-07-29T10:28:30;28.90;83.90
8105;DHT22;4095;48.942;9.104;2022-07-29T10:31:01;28.90;84.70
8105;DHT22;4095;48.942;9.104;2022-07-29T10:36:48;29.10;84.00
8105;DHT22;4095;48.942;9.104;2022-07-29T10:42:18;29.10;81.80
8105;DHT22;4095;48.942;9.104;2022-07-29T10:44:44;29.20;79.10
8105;DHT22;4095;48.942;9.104;2022-07-29T10:47:24;29.20;79.10
8105;DHT22;4095;48.942;9.104;2022-07-29T10:49:56;29.20;75.40
8105;DHT22;4095;48.942;9.104;2022-07-29T10:52:22;29.10;75.10
8105;DHT22;4095;48.942;9.104;2022-07-29T10:54:50;28.90;75.50
8105;DHT22;4095;48.942;9.104;2022-07-29T10:57:26;28.70;75.80
8105;DHT22;4095;48.942;9.104;2022-07-29T11:07:27;28.70;78.70
8105;DHT22;4095;48.942;9.104;2022-07-29T11:12:45;29.00;76.90
8105;DHT22;4095;48.942;9.104;2022-07-29T11:15:15;29.10;76.60
8105;DHT22;4095;48.942;9.104;2022-07-29T11:20:45;29.30;77.70
8105;DHT22;4095;48.942;9.104;2022-07-29T11:23:28;29.50;74.90
8105;DHT22;4095;48.942;9.104;2022-07-29T11:28:42;29.60;75.20
8105;DHT22;4095;48.942;9.104;2022-07-29T11:31:15;29.70;76.20
8105;DHT22;4095;48.942;9.104;2022-07-29T11:33:41;29.80;74.10
8105;DHT22;4095;48.942;9.104;2022-07-29T11:36:08;29.80;73.10
8105;DHT22;4095;48.942;9.104;2022-07-29T11:38:35;29.90;74.90
8105;DHT22;4095;48.942;9.104;2022-07-29T11:41:20;30.10;72.90
8105;DHT22;4095;48.942;9.104;2022-07-29T11:43:57;30.00;74.60
8105;DHT22;4095;48.942;9.104;2022-07-29T11:46:51;29.80;72.70
8105;DHT22;4095;48.942;9.104;2022-07-29T11:49:21;29.70;71.90
8105;DHT22;4095;48.942;9.104;2022-07-29T11:51:54;29.60;71.40
8105;DHT22;4095;48.942;9.104;2022-07-29T11:54:25;29.50;71.60
8105;DHT22;4095;48.942;9.104;2022-07-29T11:56:52;29.40;72.40
8105;DHT22;4095;48.942;9.104;2022-07-29T11:59:19;29.30;71.50
8105;DHT22;4095;48.942;9.104;2022-07-29T12:01:58;29.30;72.70
8105;DHT22;4095;48.942;9.104;2022-07-29T12:04:25;29.20;73.70
8105;DHT22;4095;48.942;9.104;2022-07-29T12:06:54;29.20;76.80
8105;DHT22;4095;48.942;9.104;2022-07-29T12:09:21;29.30;78.00
8105;DHT22;4095;48.942;9.104;2022-07-29T12:11:47;29.20;78.50
8105;DHT22;4095;48.942;9.104;2022-07-29T12:14:32;29.20;76.70
8105;DHT22;4095;48.942;9.104;2022-07-29T12:16:59;29.20;78.50
8105;DHT22;4095;48.942;9.104;2022-07-29T12:19:28;29.50;79.40
8105;DHT22;4095;48.942;9.104;2022-07-29T12:21:55;29.50;79.40
8105;DHT22;4095;48.942;9.104;2022-07-29T12:24:23;29.40;78.80
8105;DHT22;4095;48.942;9.104;2022-07-29T12:26:59;29.30;79.30
8105;DHT22;4095;48.942;9.104;2022-07-29T12:29:25;29.20;79.00
8105;DHT22;4095;48.942;9.104;2022-07-29T12:31:57;29.10;79.80
8105;DHT22;4095;48.942;9.104;2022-07-29T12:34:24;28.90;78.80
8105;DHT22;4095;48.942;9.104;2022-07-29T12:36:52;28.90;78.30
8105;DHT22;4095;48.942;9.104;2022-07-29T12:39:18;28.80;81.50
8105;DHT22;4095;48.942;9.104;2022-07-29T12:41:44;28.80;82.70
8105;DHT22;4095;48.942;9.104;2022-07-29T12:44:10;28.70;83.80
8105;DHT22;4095;48.942;9.104;2022-07-29T12:46:36;28.70;82.90
8105;DHT22;4095;48.942;9.104;2022-07-29T12:49:02;28.60;83.60
8105;DHT22;4095;48.942;9.104;2022-07-29T12:51:29;28.60;84.10
8105;DHT22;4095;48.942;9.104;2022-07-29T12:54:22;28.50;81.00
8105;DHT22;4095;48.942;9.104;2022-07-29T12:56:58;28.50;78.00
8105;DHT22;4095;48.942;9.104;2022-07-29T12:59:24;28.60;78.10
8105;DHT22;4095;48.942;9.104;2022-07-29T13:01:51;28.70;78.10
8105;DHT22;4095;48.942;9.104;2022-07-29T13:04:31;28.70;79.40
8105;DHT22;4095;48.942;9.104;2022-07-29T13:07:07;28.80;79.00
8105;DHT22;4095;48.942;9.104;2022-07-29T13:09:41;28.80;78.60
8105;DHT22;4095;48.942;9.104;2022-07-29T13:12:08;28.90;78.20
8105;DHT22;4095;48.942;9.104;2022-07-29T13:14:46;29.00;78.30
8105;DHT22;4095;48.942;9.104;2022-07-29T13:17:17;29.00;78.40
8105;DHT22;4095;48.942;9.104;2022-07-29T13:19:46;29.10;78.40
8105;DHT22;4095;48.942;9.104;2022-07-29T13:22:14;29.10;77.40
8105;DHT22;4095;48.942;9.104;2022-07-29T13:24:51;29.00;76.70
8105;DHT22;4095;48.942;9.104;2022-07-29T13:27:19;28.90;77.10
8105;DHT22;4095;48.942;9.104;2022-07-29T13:29:44;29.00;80.00
8105;DHT22;4095;48.942;9.104;2022-07-29T13:32:11;29.00;81.70
8105;DHT22;4095;48.942;9.104;2022-07-29T13:34:37;28.90;80.50
8105;DHT22;4095;48.942;9.104;2022-07-29T13:37:02;28.90;80.70
8105;DHT22;4095;48.942;9.104;2022-07-29T13:39:28;28.80;78.90
8105;DHT22;4095;48.942;9.104;2022-07-29T13:41:54;28.80;77.60
8105;DHT22;4095;48.942;9.104;2022-07-29T13:44:19;29.00;79.40
8105;DHT22;4095;48.942;9.104;2022-07-29T13:46:45;29.20;79.60
8105;DHT22;4095;48.942;9.104;2022-07-29T13:49:10;29.20;80.40
8105;DHT22;4095;48.942;9.104;2022-07-29T13:51:37;29.20;79.60
8105;DHT22;4095;48.942;9.104;2022-07-29T13:54:02;29.20;78.70
8105;DHT22;4095;48.942;9.104;2022-07-29T13:56:28;29.20;78.40
8105;DHT22;4095;48.942;9.104;2022-07-29T13:58:54;29.30;78.60
8105;DHT22;4095;48.942;9.104;2022-07-29T14:01:19;29.30;79.20
8105;DHT22;4095;48.942;9.104;2022-07-29T14:03:45;29.20;77.10
8105;DHT22;4095;48.942;9.104;2022-07-29T14:06:11;29.20;73.90
8105;DHT22;4095;48.942;9.104;2022-07-29T14:08:36;29.20;71.90
8105;DHT22;4095;48.942;9.104;2022-07-29T14:11:02;29.20;71.70
8105;DHT22;4095;48.942;9.104;2022-07-29T14:13:27;29.20;71.70
8105;DHT22;4095;48.942;9.104;2022-07-29T14:15:53;29.10;71.30
8105;DHT22;4095;48.942;9.104;2022-07-29T14:18:19;29.10;72.20
8105;DHT22;4095;48.942;9.104;2022-07-29T14:20:44;29.10;70.90
8105;DHT22;4095;48.942;9.104;2022-07-29T14:23:10;29.20;72.80
8105;DHT22;4095;48.942;9.104;2022-07-29T14:25:36;29.20;72.30
8105;DHT22;4095;48.942;9.104;2022-07-29T14:28:01;29.20;71.70
8105;DHT22;4095;48.942;9.104;2022-07-29T14:30:27;29.20;72.40
8105;DHT22;4095;48.942;9.104;2022-07-29T14:32:52;29.10;71.10
8105;DHT22;4095;48.942;9.104;2022-07-29T14:35:18;29.10;72.30
8105;DHT22;4095;48.942;9.104;2022-07-29T14:37:43;29.10;71.00
8105;DHT22;4095;48.942;9.104;2022-07-29T14:40:09;29.10;72.20
8105;DHT22;4095;48.942;9.104;2022-07-29T14:42:35;29.10;70.30
8105;DHT22;4095;48.942;9.104;2022-07-29T14:45:02;29.10;70.10
8105;DHT22;4095;48.942;9.104;2022-07-29T14:47:28;29.10;71.60
8105;DHT22;4095;48.942;9.104;2022-07-29T14:49:54;29.10;72.90
8105;DHT22;4095;48.942;9.104;2022-07-29T14:52:20;29.10;71.40
8105;DHT22;4095;48.942;9.104;2022-07-29T14:54:46;29.10;71.90
8105;DHT22;4095;48.942;9.104;2022-07-29T14:57:11;29.10;72.10
8105;DHT22;4095;48.942;9.104;2022-07-29T14:59:37;29.10;71.70
8105;DHT22;4095;48.942;9.104;2022-07-29T15:02:03;29.10;70.50
8105;DHT22;4095;48.942;9.104;2022-07-29T15:04:28;29.10;70.60
8105;DHT22;4095;48.942;9.104;2022-07-29T15:06:54;28.90;69.80
8105;DHT22;4095;48.942;9.104;2022-07-29T15:09:19;28.90;69.20
8105;DHT22;4095;48.942;9.104;2022-07-29T15:11:45;28.80;70.00
8105;DHT22;4095;48.942;9.104;2022-07-29T15:14:10;28.80;70.90
8105;DHT22;4095;48.942;9.104;2022-07-29T15:16:37;28.80;70.20
8105;DHT22;4095;48.942;9.104;2022-07-29T15:19:05;28.80;70.80
8105;DHT22;4095;48.942;9.104;2022-07-29T15:21:31;28.80;69.60
8105;DHT22;4095;48.942;9.104;2022-07-29T15:23:57;28.90;68.90
8105;DHT22;4095;48.942;9.104;2022-07-29T15:26:23;28.80;69.60
8105;DHT22;4095;48.942;9.104;2022-07-29T15:28:48;28.70;68.20
8105;DHT22;4095;48.942;9.104;2022-07-29T15:31:14;28.80;68.20
8105;DHT22;4095;48.942;9.104;2022-07-29T15:33:40;28.80;68.90
8105;DHT22;4095;48.942;9.104;2022-07-29T15:36:06;28.70;69.30
8105;DHT22;4095;48.942;9.104;2022-07-29T15:38:31;28.70;68.80
8105;DHT22;4095;48.942;9.104;2022-07-29T15:40:58;28.80;68.50
8105;DHT22;4095;48.942;9.104;2022-07-29T15:43:23;28.70;68.60
8105;DHT22;4095;48.942;9.104;2022-07-29T15:45:49;28.70;70.70
8105;DHT22;4095;48.942;9.104;2022-07-29T15:48:37;28.70;68.80
8105;DHT22;4095;48.942;9.104;2022-07-29T15:51:03;28.70;69.70
8105;DHT22;4095;48.942;9.104;2022-07-29T15:53:29;28.70;68.80
8105;DHT22;4095;48.942;9.104;2022-07-29T15:55:54;28.70;69.70
8105;DHT22;4095;48.942;9.104;2022-07-29T15:58:20;28.70;68.80
8105;DHT22;4095;48.942;9.104;2022-07-29T16:00:45;28.60;68.20
8105;DHT22;4095;48.942;9.104;2022-07-29T16:03:11;28.60;69.40
8105;DHT22;4095;48.942;9.104;2022-07-29T16:05:37;28.60;70.80
8105;DHT22;4095;48.942;9.104;2022-07-29T16:08:02;28.70;70.50
8105;DHT22;4095;48.942;9.104;2022-07-29T16:10:28;28.70;69.90
8105;DHT22;4095;48.942;9.104;2022-07-29T16:12:53;28.70;68.80
8105;DHT22;4095;48.942;9.104;2022-07-29T16:15:19;28.70;69.00
8105;DHT22;4095;48.942;9.104;2022-07-29T16:17:45;28.70;69.60
8105;DHT22;4095;48.942;9.104;2022-07-29T16:20:10;28.70;70.40
8105;DHT22;4095;48.942;9.104;2022-07-29T16:22:36;28.70;69.60
8105;DHT22;4095;48.942;9.104;2022-07-29T16:25:02;28.60;67.80
8105;DHT22;4095;48.942;9.104;2022-07-29T16:27:28;28.60;68.50
8105;DHT22;4095;48.942;9.104;2022-07-29T16:29:54;28.50;68.70
8105;DHT22;4095;48.942;9.104;2022-07-29T16:32:20;28.50;68.10
8105;DHT22;4095;48.942;9.104;2022-07-29T16:34:46;28.40;70.10
8105;DHT22;4095;48.942;9.104;2022-07-29T16:37:11;28.50;69.00
8105;DHT22;4095;48.942;9.104;2022-07-29T16:39:37;28.40;68.60
8105;DHT22;4095;48.942;9.104;2022-07-29T16:42:03;28.40;68.90